Time;durP1;ratioP1;P1;durP2;ratioP2;P2;SDS_P1;SDS_P2;PMS_P1;PMS_P2;Temp;Humidity;BMP_temperature;BMP_pressure;BME280_temperature;BME280_humidity;BME280_pressure;Samples;Min_cycle;Max_cycle;Signal;HPM_P1;HPM_P2
2022/12/01 00:00:14;;;;;;;4.03;2.10;;;;;;;10.72;82.79;100379.41;10296571;28;96811;-81
2022/12/01 00:05:17;;;;;;;3.30;2.28;;;;;;;10.74;82.32;100381.97;10296520;28;96571;-81
2022/12/01 00:10:26;;;;;;;5.90;2.88;;;;;;;10.77;82.77;100369.53;10296306;28;96782;-81
2022/12/01 00:15:33;;;;;;;3.65;2.58;;;;;;;10.73;83.48;100365.31;10298248;28;96587;-81
2022/12/01 00:20:36;;;;;;;4.03;2.40;;;;;;;10.72;83.03;100346.94;10302760;28;96677;-81
2022/12/01 00:25:40;;;;;;;4.50;2.45;;;;;;;10.73;82.88;100333.72;10303560;28;97310;-81
2022/12/01 00:30:44;;;;;;;3.53;2.60;;;;;;;10.72;82.36;100339.91;10331766;28;96840;-81
2022/12/01 00:35:47;;;;;;;5.37;2.90;;;;;;;10.72;82.76;100333.78;10302047;28;96628;-81
2022/12/01 00:40:50;;;;;;;3.75;2.55;;;;;;;10.71;82.36;100340.84;10301135;28;97025;-81
2022/12/01 00:45:56;;;;;;;3.45;2.60;;;;;;;10.71;82.03;100325.06;10301890;28;96679;-80
2022/12/01 00:50:59;;;;;;;4.90;3.00;;;;;;;10.73;81.84;100338.16;10302323;28;96785;-81
2022/12/01 00:56:02;;;;;;;3.60;2.83;;;;;;;10.75;82.18;100329.25;10301519;28;96704;-81
2022/12/01 01:01:07;;;;;;;6.70;3.15;;;;;;;10.82;81.62;100327.25;10300413;28;97051;-81
2022/12/01 01:06:12;;;;;;;6.38;3.40;;;;;;;10.86;80.49;100327.06;10301926;28;96601;-81
2022/12/01 01:11:15;;;;;;;4.80;3.03;;;;;;;10.82;80.76;100338.63;10301196;28;96633;-81
2022/12/01 01:16:22;;;;;;;4.22;2.70;;;;;;;10.84;81.13;100328.91;10301833;28;96565;-81
2022/12/01 01:21:25;;;;;;;5.80;3.20;;;;;;;10.83;80.94;100335.09;10301445;28;97048;-81
2022/12/01 01:26:31;;;;;;;6.68;3.38;;;;;;;10.85;80.17;100312.19;10299940;28;96756;-81
2022/12/01 01:31:35;;;;;;;4.70;3.40;;;;;;;10.80;80.47;100292.25;10340366;28;96684;-81
2022/12/01 01:36:39;;;;;;;4.93;3.08;;;;;;;10.79;80.66;100280.84;10341054;28;96758;-81
2022/12/01 01:41:42;;;;;;;5.05;2.88;;;;;;;10.77;80.07;100271.28;10340842;28;96812;-80
2022/12/01 01:46:46;;;;;;;5.75;3.30;;;;;;;10.74;80.71;100272.28;10340808;28;97145;-81
2022/12/01 01:51:54;;;;;;;4.90;3.05;;;;;;;10.73;80.20;100275.00;10341173;28;96699;-81
2022/12/01 01:57:00;;;;;;;6.82;3.58;;;;;;;10.74;79.68;100277.56;10339954;28;96691;-81
2022/12/01 02:02:07;;;;;;;5.97;3.28;;;;;;;10.77;80.12;100295.84;10339616;28;96846;-80
2022/12/01 02:07:12;;;;;;;5.47;3.40;;;;;;;10.77;79.22;100298.47;10341108;28;96830;-81
2022/12/01 02:12:35;;;;;;;6.78;3.47;;;;;;;10.75;79.70;100299.47;10339591;28;96872;-81
2022/12/01 02:17:51;;;;;;;7.05;3.80;;;;;;;10.81;79.06;100307.97;10298707;28;96589;-81
2022/12/01 02:23:21;;;;;;;6.15;3.35;;;;;;;10.77;78.71;100314.28;10297859;28;96659;-81
2022/12/01 02:28:50;;;;;;;5.28;3.20;;;;;;;10.77;78.30;100295.84;10300646;28;96840;-81
2022/12/01 02:33:59;;;;;;;4.55;3.03;;;;;;;10.80;77.96;100308.03;10339025;28;96662;-81
2022/12/01 02:39:09;;;;;;;6.15;3.03;;;;;;;10.76;78.73;100301.19;10338124;28;96757;-81
2022/12/01 02:44:18;;;;;;;6.25;3.10;;;;;;;10.72;78.33;100297.81;10339557;28;97013;-81
2022/12/01 02:49:26;;;;;;;6.05;3.30;;;;;;;10.65;78.29;100296.34;10338491;28;96747;-80
2022/12/01 02:54:31;;;;;;;5.25;3.45;;;;;;;10.66;78.80;100305.94;10339089;28;96803;-81
2022/12/01 02:59:34;;;;;;;5.68;3.38;;;;;;;10.65;77.75;100309.50;10338591;28;96736;-81
2022/12/01 03:04:55;;;;;;;5.95;3.63;;;;;;;10.59;77.96;100295.72;10327232;28;97113;-80
2022/12/01 03:10:08;;;;;;;6.38;3.47;;;;;;;10.61;77.70;100299.16;10297705;28;96591;-81
2022/12/01 03:15:21;;;;;;;7.50;3.15;;;;;;;10.59;77.96;100295.72;10296601;28;96949;-81
2022/12/01 03:20:35;;;;;;;4.55;3.22;;;;;;;10.57;77.27;100293.16;10297609;28;96681;-81
2022/12/01 03:25:41;;;;;;;4.53;3.00;;;;;;;10.55;77.46;100297.63;10297300;28;96609;-81
2022/12/01 03:30:47;;;;;;;5.57;3.55;;;;;;;10.55;77.41;100291.47;10318425;28;96809;-81
2022/12/01 03:35:56;;;;;;;6.00;3.35;;;;;;;10.59;76.17;100286.06;10337262;28;96787;-81
2022/12/01 03:41:06;;;;;;;5.30;3.63;;;;;;;10.63;75.89;100290.25;10306976;28;96680;-81
2022/12/01 03:46:16;;;;;;;4.60;3.63;;;;;;;10.62;75.48;100293.84;10296390;28;96772;-81
2022/12/01 03:51:27;;;;;;;6.15;3.75;;;;;;;10.61;75.46;100286.84;10300065;28;97066;-81
2022/12/01 03:56:36;;;;;;;8.88;4.35;;;;;;;10.66;75.10;100287.50;10304119;28;96587;-81
2022/12/01 04:01:39;;;;;;;6.45;4.00;;;;;;;10.65;75.64;100288.44;10303073;28;97074;-81
2022/12/01 04:06:47;;;;;;;5.63;4.10;;;;;;;10.59;76.03;100291.31;10302361;28;96620;-81
2022/12/01 04:17:11;;;;;;;6.97;4.18;;;;;;;10.60;76.13;100279.00;10303021;28;96694;-81
2022/12/01 04:22:16;;;;;;;6.20;4.13;;;;;;;10.61;76.16;100286.00;10302676;28;96855;-81
2022/12/01 04:27:20;;;;;;;5.05;3.35;;;;;;;10.55;75.64;100281.81;10302672;28;96674;-81
2022/12/01 04:32:23;;;;;;;6.80;3.83;;;;;;;10.48;76.12;100279.47;10336240;28;96861;-81
2022/12/01 04:37:27;;;;;;;7.82;3.90;;;;;;;10.40;76.77;100266.66;10343250;28;97033;-81
2022/12/01 04:42:30;;;;;;;6.23;3.73;;;;;;;10.38;76.69;100268.47;10344014;28;97107;-81
2022/12/01 04:47:33;;;;;;;6.88;3.83;;;;;;;10.38;76.60;100250.06;10342026;28;96809;-81
2022/12/01 04:52:38;;;;;;;4.82;3.60;;;;;;;10.34;76.89;100242.34;10342932;28;96697;-81
2022/12/01 04:57:41;;;;;;;7.50;4.18;;;;;;;10.35;77.34;100241.44;10341649;28;96718;-81
2022/12/01 05:02:45;;;;;;;4.47;3.35;;;;;;;10.35;76.55;100244.91;10321942;28;96775;-81
2022/12/01 05:07:49;;;;;;;4.82;3.20;;;;;;;10.42;75.90;100248.16;10301127;28;96796;-81
2022/12/01 05:12:54;;;;;;;4.97;3.22;;;;;;;10.46;75.10;100250.59;10301166;28;97348;-81
2022/12/01 05:17:57;;;;;;;5.10;2.57;;;;;;;10.51;75.31;100240.75;10300944;28;96913;-81
2022/12/01 05:23:01;;;;;;;4.70;2.90;;;;;;;10.41;75.53;100241.19;10301496;28;96585;-81
2022/12/01 05:28:08;;;;;;;5.88;3.45;;;;;;;10.41;74.88;100238.53;10300582;28;96693;-81
2022/12/01 05:33:11;;;;;;;7.18;3.50;;;;;;;10.39;75.08;100232.47;10324341;28;96930;-81
2022/12/01 05:38:16;;;;;;;5.07;2.92;;;;;;;10.42;74.58;100227.97;10340320;28;97270;-81
2022/12/01 05:43:19;;;;;;;5.03;2.88;;;;;;;10.38;74.65;100228.16;10341651;28;96696;-81
2022/12/01 05:48:31;;;;;;;6.03;3.22;;;;;;;10.38;73.83;100251.81;10340099;28;96613;-81
2022/12/01 05:53:35;;;;;;;5.63;2.58;;;;;;;10.42;74.09;100254.25;10340343;28;96565;-81
2022/12/01 05:58:38;;;;;;;3.90;2.92;;;;;;;10.37;74.73;100277.25;10340771;28;96891;-81
2022/12/01 06:03:42;;;;;;;6.47;3.40;;;;;;;10.38;74.48;100286.88;10308271;28;96762;-81
2022/12/01 06:08:46;;;;;;;4.07;2.70;;;;;;;10.35;73.92;100299.28;10298746;28;97562;-81
2022/12/01 06:13:49;;;;;;;6.50;3.00;;;;;;;10.26;74.32;100297.88;10328313;28;96885;-80
2022/12/01 06:18:52;;;;;;;5.75;2.90;;;;;;;10.29;75.35;100297.75;10340338;28;97024;-81
2022/12/01 06:23:57;;;;;;;3.72;3.10;;;;;;;10.31;74.74;100311.72;10340311;28;97014;-81
2022/12/01 06:29:00;;;;;;;5.90;3.37;;;;;;;10.25;75.15;100318.03;10339001;28;96826;-81
2022/12/01 06:34:03;;;;;;;5.43;3.30;;;;;;;10.22;74.75;100309.41;10309563;28;96911;-81
2022/12/01 06:39:09;;;;;;;4.40;2.85;;;;;;;10.18;75.19;100328.84;10297333;28;96715;-81
2022/12/01 06:44:12;;;;;;;5.65;3.05;;;;;;;10.12;75.30;100336.97;10298236;28;96841;-81
2022/12/01 06:49:15;;;;;;;3.63;2.70;;;;;;;10.08;75.98;100352.00;10339102;28;97017;-81
2022/12/01 06:54:20;;;;;;;5.50;3.13;;;;;;;10.04;76.41;100365.28;10339402;28;96770;-81
2022/12/01 06:59:23;;;;;;;5.07;3.10;;;;;;;9.99;76.11;100359.34;10338306;28;97087;-81
2022/12/01 07:04:27;;;;;;;5.18;3.38;;;;;;;9.98;76.46;100374.28;10312274;28;96794;-81
2022/12/01 07:09:31;;;;;;;5.70;3.00;;;;;;;9.83;77.05;100389.72;10297444;28;97001;-81
2022/12/01 07:14:35;;;;;;;5.03;3.22;;;;;;;9.83;77.22;100381.84;10298102;28;96536;-81
2022/12/01 07:19:38;;;;;;;5.30;2.75;;;;;;;9.88;76.88;100375.47;10298037;28;97353;-81
2022/12/01 07:24:42;;;;;;;4.05;2.60;;;;;;;9.90;76.29;100385.97;10296344;28;97357;-81
2022/12/01 07:29:46;;;;;;;2.87;2.30;;;;;;;9.90;76.67;100399.09;10296214;28;96870;-81
2022/12/01 07:34:49;;;;;;;5.45;3.10;;;;;;;9.85;76.66;100385.25;10333338;28;96720;-81
2022/12/01 07:39:54;;;;;;;4.10;2.47;;;;;;;9.85;76.13;100391.38;10336957;28;96692;-81
2022/12/01 07:44:57;;;;;;;6.07;2.97;;;;;;;9.84;76.18;100396.69;10337324;28;96799;-81
2022/12/01 07:50:00;;;;;;;5.00;3.22;;;;;;;9.89;76.32;100394.75;10338284;28;96616;-81
2022/12/01 07:55:05;;;;;;;4.45;2.95;;;;;;;9.88;75.99;100398.31;10336529;28;96742;-81
2022/12/01 08:00:10;;;;;;;5.65;3.38;;;;;;;9.86;76.56;100400.13;10336754;28;96693;-81
2022/12/01 08:05:13;;;;;;;5.25;3.50;;;;;;;9.77;76.79;100396.03;10337989;28;96863;-81
2022/12/01 08:10:17;;;;;;;4.45;2.92;;;;;;;9.83;77.05;100411.56;10328336;28;96650;-81
2022/12/01 08:15:21;;;;;;;5.00;2.65;;;;;;;9.81;76.95;100418.66;10295818;28;96573;-81
2022/12/01 08:20:24;;;;;;;5.75;2.95;;;;;;;9.80;77.22;100435.34;10294743;28;96775;-81
2022/12/01 08:25:29;;;;;;;4.15;2.83;;;;;;;9.82;77.07;100451.06;10295747;28;96746;-81
2022/12/01 08:30:32;;;;;;;4.07;2.65;;;;;;;9.76;77.04;100456.53;10296114;28;96617;-81
2022/12/01 08:35:36;;;;;;;5.22;3.05;;;;;;;9.69;77.68;100466.34;10316374;28;96612;-81
2022/12/01 08:40:40;;;;;;;4.80;2.65;;;;;;;9.87;77.71;100470.16;10341991;28;96717;-81
2022/12/01 08:45:44;;;;;;;6.37;2.60;;;;;;;10.11;75.61;100482.47;10342261;28;97534;-81
2022/12/01 08:50:47;;;;;;;5.28;2.60;;;;;;;10.30;75.03;100487.97;10343119;28;96645;-81
2022/12/01 08:55:51;;;;;;;4.07;2.60;;;;;;;10.42;75.14;100492.81;10343503;28;96806;-81
2022/12/01 09:01:02;;;;;;;6.37;3.00;;;;;;;10.59;74.15;100499.19;10341091;28;96884;-81
2022/12/01 09:06:07;;;;;;;3.25;2.58;;;;;;;10.66;73.89;100505.94;10342430;28;96705;-81
2022/12/01 09:11:14;;;;;;;5.03;2.70;;;;;;;10.80;74.05;100502.81;10341527;28;96656;-81
2022/12/01 09:16:18;;;;;;;4.50;2.70;;;;;;;10.94;73.54;100519.81;10342645;28;96727;-81
2022/12/01 09:21:24;;;;;;;4.20;2.67;;;;;;;11.00;72.62;100519.59;10308032;28;97086;-81
2022/12/01 09:26:29;;;;;;;3.70;2.70;;;;;;;11.08;72.97;100514.03;10301078;28;96718;-81
2022/12/01 09:31:32;;;;;;;3.92;2.78;;;;;;;11.20;71.75;100524.13;10300463;28;96695;-81
2022/12/01 09:36:37;;;;;;;6.93;2.60;;;;;;;11.32;71.02;100534.22;10310578;28;96960;-81
2022/12/01 09:41:45;;;;;;;4.15;2.60;;;;;;;11.34;70.91;100535.88;10300540;28;96837;-81
2022/12/01 09:46:53;;;;;;;4.90;3.10;;;;;;;11.39;70.12;100552.38;10300758;28;96931;-81
2022/12/01 09:51:59;;;;;;;3.80;2.70;;;;;;;11.54;70.51;100553.56;10300037;28;97125;-81
2022/12/01 09:57:04;;;;;;;5.22;3.08;;;;;;;11.57;70.21;100553.44;10299839;28;97026;-81
2022/12/01 10:02:27;;;;;;;6.05;2.90;;;;;;;11.63;69.52;100565.53;10298817;28;97075;-81
2022/12/01 10:07:33;;;;;;;3.95;2.42;;;;;;;11.66;68.49;100558.34;10299212;28;97080;-81
2022/12/01 10:12:37;;;;;;;5.43;3.13;;;;;;;11.78;67.84;100564.91;10300762;28;97517;-81
2022/12/01 10:17:51;;;;;;;3.38;2.20;;;;;;;11.73;66.48;100570.38;10298638;28;96794;-82
2022/12/01 10:23:20;;;;;;;4.25;3.10;;;;;;;11.83;66.55;100561.19;10298583;28;96744;-81
2022/12/01 10:28:52;;;;;;;3.13;2.20;;;;;;;11.90;66.14;100574.97;10299386;28;96669;-81
2022/12/01 10:34:00;;;;;;;3.75;2.65;;;;;;;12.05;66.36;100569.06;10306349;28;96506;-81
2022/12/01 10:39:06;;;;;;;4.50;2.50;;;;;;;12.18;66.79;100562.41;10340360;28;96556;-81
2022/12/01 10:44:11;;;;;;;4.22;2.97;;;;;;;12.25;67.41;100577.06;10338743;28;97045;-81
2022/12/01 10:49:16;;;;;;;8.70;2.90;;;;;;;12.35;66.91;100568.69;10339767;28;96534;-81
2022/12/01 10:54:20;;;;;;;5.38;2.85;;;;;;;12.48;64.87;100569.00;10337976;28;96653;-81
2022/12/01 10:59:29;;;;;;;3.83;2.37;;;;;;;12.46;63.54;100562.97;10337229;28;96727;-81
2022/12/01 11:04:44;;;;;;;4.85;2.47;;;;;;;12.53;64.12;100565.25;10338118;28;96895;-81
2022/12/01 11:10:03;;;;;;;4.50;2.30;;;;;;;12.54;62.43;100548.53;10338832;28;96659;-81
2022/12/01 11:15:17;;;;;;;4.55;2.65;;;;;;;12.62;63.40;100536.78;10338316;28;96942;-81
2022/12/01 11:20:29;;;;;;;6.78;2.03;;;;;;;12.64;61.54;100534.91;10304488;28;96742;-81
2022/12/01 11:25:33;;;;;;;4.45;2.17;;;;;;;12.67;61.63;100524.25;10297240;28;96643;-81
2022/12/01 11:30:37;;;;;;;4.80;2.45;;;;;;;12.86;60.86;100522.53;10297970;28;96836;-81
2022/12/01 11:35:47;;;;;;;3.10;1.83;;;;;;;12.79;60.68;100498.16;10297634;28;96834;-81
2022/12/01 11:40:54;;;;;;;2.75;1.98;;;;;;;12.92;60.21;100493.19;10296330;28;96795;-81
2022/12/01 11:46:02;;;;;;;3.40;1.77;;;;;;;13.05;60.19;100492.53;10295763;28;96671;-81
2022/12/01 11:51:08;;;;;;;5.57;2.10;;;;;;;13.13;59.41;100481.63;10297361;28;96817;-81
2022/12/01 11:56:17;;;;;;;3.78;2.20;;;;;;;13.12;60.21;100474.66;10296453;28;96825;-81
2022/12/01 12:01:33;;;;;;;4.38;2.20;;;;;;;13.13;60.40;100464.00;10295930;28;97229;-81
2022/12/01 12:06:44;;;;;;;3.60;1.92;;;;;;;13.20;60.09;100457.50;10296308;28;96840;-81
2022/12/01 12:11:57;;;;;;;4.95;2.45;;;;;;;13.21;60.50;100439.84;10298669;28;96879;-81
2022/12/01 12:17:29;;;;;;;3.47;1.80;;;;;;;13.24;60.04;100440.56;10302727;28;96731;-81
2022/12/01 12:22:44;;;;;;;3.58;2.05;;;;;;;13.33;59.61;100432.19;10303862;28;97150;-81
2022/12/01 12:28:06;;;;;;;2.28;1.65;;;;;;;13.40;60.37;100415.13;10303250;28;96533;-81
2022/12/01 12:33:45;;;;;;;3.80;2.05;;;;;;;13.36;59.65;100413.53;10302556;28;96691;-81
2022/12/01 12:38:59;;;;;;;2.53;1.80;;;;;;;13.50;59.52;100413.72;10279176;28;102219;-81
2022/12/01 12:44:28;;;;;;;3.25;1.90;;;;;;;13.58;59.46;100405.44;10302941;28;97935;-81
2022/12/01 12:49:45;;;;;;;2.22;1.77;;;;;;;13.65;59.44;100388.34;10301973;28;96714;-81
2022/12/01 12:54:51;;;;;;;3.55;2.25;;;;;;;13.64;59.48;100394.53;10301792;28;96614;-81
2022/12/01 12:59:59;;;;;;;5.68;1.98;;;;;;;13.60;58.64;100378.00;10301943;28;97185;-81
2022/12/01 13:05:10;;;;;;;3.42;1.83;;;;;;;13.63;57.86;100364.63;10301465;28;97260;-81
2022/12/01 13:10:24;;;;;;;3.38;1.67;;;;;;;13.73;57.64;100362.34;10301474;28;97587;-81
2022/12/01 13:15:30;;;;;;;3.47;2.07;;;;;;;14.83;55.00;100348.53;10303478;28;97041;-81
2022/12/01 13:20:37;;;;;;;3.55;1.98;;;;;;;15.69;51.44;100348.84;10341840;28;96669;-82
2022/12/01 13:25:42;;;;;;;2.70;1.90;;;;;;;16.56;49.19;100343.50;10341198;28;96768;-82
2022/12/01 13:30:59;;;;;;;3.00;1.60;;;;;;;16.47;47.04;100320.16;10340969;28;96641;-80
2022/12/01 13:36:09;;;;;;;1.77;1.35;;;;;;;17.11;44.85;100316.91;10333953;28;97020;-79
2022/12/01 13:41:33;;;;;;;4.93;1.40;;;;;;;16.77;44.92;100320.88;10341209;28;96819;-80
2022/12/01 13:46:53;;;;;;;3.25;1.60;;;;;;;15.77;46.49;100302.34;10340788;28;96812;-82
2022/12/01 13:52:30;;;;;;;2.95;2.03;;;;;;;14.88;47.45;100309.38;10339916;28;96777;-82
2022/12/01 13:57:34;;;;;;;3.28;1.60;;;;;;;14.85;48.24;100308.69;10340923;28;97311;-81
2022/12/01 14:02:37;;;;;;;;;;;;;;;14.37;48.58;100309.59;10340710;28;96769;-82
2022/12/01 14:07:43;;;;;;;2.55;1.27;;;;;;;14.31;48.96;100302.00;10313761;28;96954;-82
2022/12/01 14:12:47;;;;;;;3.20;1.55;;;;;;;14.38;47.78;100293.66;10298900;28;96772;-81
2022/12/01 14:18:00;;;;;;;2.30;1.80;;;;;;;14.34;47.92;100293.88;10299109;28;96679;-81
2022/12/01 14:23:22;;;;;;;2.67;1.63;;;;;;;14.39;47.98;100295.34;10298025;28;96708;-81
2022/12/01 14:28:55;;;;;;;3.40;2.17;;;;;;;14.71;47.39;100285.63;10298634;28;96925;-81
2022/12/01 14:34:02;;;;;;;2.72;2.00;;;;;;;15.71;45.58;100278.00;10265633;28;96945;-81
2022/12/01 14:39:13;;;;;;;2.78;1.90;;;;;;;16.49;42.73;100277.56;10330869;28;96754;-82
2022/12/01 14:44:23;;;;;;;2.70;1.95;;;;;;;17.14;41.95;100284.78;10338373;28;96593;-81
2022/12/01 14:49:32;;;;;;;4.13;2.60;;;;;;;17.21;41.28;100280.75;10339332;28;96602;-79
2022/12/01 14:54:45;;;;;;;3.45;2.10;;;;;;;17.40;40.14;100281.25;10338598;28;96796;-79
2022/12/01 15:00:02;;;;;;;3.33;2.05;;;;;;;17.34;39.86;100275.50;10338364;28;96760;-80
2022/12/01 15:05:07;;;;;;;3.22;2.17;;;;;;;17.70;40.26;100263.25;10332215;28;96661;-79
2022/12/01 15:10:19;;;;;;;3.63;2.10;;;;;;;17.56;40.00;100265.13;10297999;28;96737;-79
2022/12/01 15:15:25;;;;;;;3.25;2.10;;;;;;;17.33;40.20;100264.00;10305692;28;96729;-79
2022/12/01 15:20:31;;;;;;;2.63;2.17;;;;;;;17.48;40.10;100255.03;10338541;28;96873;-79
2022/12/01 15:25:36;;;;;;;3.30;2.20;;;;;;;17.18;40.98;100248.19;10337905;28;96511;-81
2022/12/01 15:30:40;;;;;;;2.97;2.35;;;;;;;16.97;41.41;100253.13;10338176;28;96906;-82
2022/12/01 15:35:46;;;;;;;3.70;2.30;;;;;;;16.88;42.13;100251.94;10337080;28;96695;-82
2022/12/01 15:40:52;;;;;;;3.35;2.58;;;;;;;16.85;42.78;100254.81;10338276;28;96990;-81
2022/12/01 15:46:18;;;;;;;3.30;2.05;;;;;;;16.62;43.23;100249.25;10338908;28;96821;-81
2022/12/01 15:51:26;;;;;;;4.80;2.28;;;;;;;16.70;43.61;100257.59;10319900;28;96774;-81
2022/12/01 15:56:35;;;;;;;3.45;2.10;;;;;;;16.51;44.02;100254.41;10304079;28;97360;-82
2022/12/01 16:01:40;;;;;;;3.17;2.05;;;;;;;16.42;44.63;100250.53;10303480;28;97745;-81
2022/12/01 16:06:55;;;;;;;3.72;2.33;;;;;;;15.51;46.44;100251.81;10303129;28;97494;-81
2022/12/01 16:12:25;;;;;;;3.20;2.20;;;;;;;14.94;47.97;100250.72;10303388;28;96834;-81
2022/12/01 16:17:40;;;;;;;3.05;2.40;;;;;;;14.72;49.04;100253.75;10302959;28;96611;-81
2022/12/01 16:22:46;;;;;;;4.30;2.15;;;;;;;14.60;49.53;100253.59;10303738;28;96809;-81
2022/12/01 16:27:53;;;;;;;5.40;2.63;;;;;;;14.41;50.17;100260.84;10302654;28;97289;-80
2022/12/01 16:33:05;;;;;;;3.38;2.58;;;;;;;14.23;50.79;100264.50;10302213;28;96558;-81
2022/12/01 16:38:14;;;;;;;4.15;2.65;;;;;;;14.14;51.52;100268.47;10327069;28;96772;-81
2022/12/01 16:43:21;;;;;;;3.95;3.15;;;;;;;13.99;51.35;100277.22;10343576;28;96854;-81
2022/12/01 16:48:24;;;;;;;5.03;3.15;;;;;;;13.84;52.25;100285.97;10343133;28;98480;-81
2022/12/01 16:53:28;;;;;;;5.03;3.38;;;;;;;13.63;52.96;100276.50;10343069;28;97126;-81
2022/12/01 16:58:32;;;;;;;6.07;4.20;;;;;;;13.55;53.11;100286.63;10339155;28;96664;-80
2022/12/01 17:03:37;;;;;;;8.35;4.55;;;;;;;13.43;53.58;100282.78;10342020;28;96774;-81
2022/12/01 17:08:40;;;;;;;12.10;6.60;;;;;;;13.34;54.06;100283.28;10313565;28;96939;-81
2022/12/01 17:13:45;;;;;;;10.18;7.28;;;;;;;13.18;55.30;100279.69;10302054;28;96762;-80
2022/12/01 17:18:48;;;;;;;10.43;6.80;;;;;;;13.10;55.16;100278.34;10301096;28;96558;-80
2022/12/01 17:23:51;;;;;;;12.93;7.80;;;;;;;12.82;58.08;100285.91;10300775;28;96821;-81
2022/12/01 17:28:56;;;;;;;13.93;9.45;;;;;;;12.64;58.61;100287.63;10300494;28;96930;-80
2022/12/01 17:33:59;;;;;;;26.20;16.17;;;;;;;12.44;59.54;100293.84;10301764;28;97983;-80
2022/12/01 17:39:03;;;;;;;19.83;13.68;;;;;;;12.30;59.91;100292.75;10314037;28;97488;-81
2022/12/01 17:44:08;;;;;;;13.50;8.43;;;;;;;12.20;61.15;100304.66;10340760;28;97068;-80
2022/12/01 17:49:12;;;;;;;18.15;11.95;;;;;;;12.09;61.83;100312.19;10339233;28;96838;-81
2022/12/01 17:54:15;;;;;;;12.52;8.77;;;;;;;11.91;63.00;100313.03;10340674;28;96620;-81
2022/12/01 17:59:20;;;;;;;13.57;8.68;;;;;;;11.82;63.57;100318.69;10340748;28;97969;-81
2022/12/01 18:04:23;;;;;;;12.35;7.60;;;;;;;11.86;62.18;100314.97;10339681;28;97730;-80
2022/12/01 18:09:26;;;;;;;10.32;6.95;;;;;;;11.79;62.70;100313.53;10340084;28;96735;-80
2022/12/01 18:14:33;;;;;;;11.32;7.43;;;;;;;11.67;63.28;100309.66;10340326;28;96726;-81
2022/12/01 18:19:36;;;;;;;10.90;6.32;;;;;;;11.66;63.21;100317.63;10340295;28;96675;-80
2022/12/01 18:24:40;;;;;;;8.32;6.35;;;;;;;11.53;63.20;100325.19;10339980;28;96730;-81
2022/12/01 18:29:44;;;;;;;10.77;7.85;;;;;;;11.42;63.95;100327.44;10339598;28;97158;-80
2022/12/01 18:34:48;;;;;;;13.65;8.75;;;;;;;11.19;66.38;100341.56;10339696;28;97255;-80
2022/12/01 18:39:55;;;;;;;11.85;7.85;;;;;;;11.06;66.63;100329.75;10330085;28;97827;-80
2022/12/01 18:45:00;;;;;;;10.32;6.53;;;;;;;11.00;66.38;100342.31;10339612;28;96726;-80
2022/12/01 18:50:04;;;;;;;9.93;6.18;;;;;;;11.02;65.76;100349.25;10339374;28;96814;-80
2022/12/01 18:55:07;;;;;;;12.93;7.00;;;;;;;10.96;66.17;100338.94;10338725;28;97098;-80
2022/12/01 19:00:14;;;;;;;10.15;6.00;;;;;;;10.87;66.12;100344.56;10297492;28;96684;-80
2022/12/01 19:05:17;;;;;;;9.43;6.25;;;;;;;10.94;65.75;100351.31;10297682;28;96645;-81
2022/12/01 19:10:21;;;;;;;11.80;7.35;;;;;;;10.83;65.43;100355.28;10297370;28;96734;-81
2022/12/01 19:15:25;;;;;;;13.27;8.38;;;;;;;10.72;67.06;100350.44;10298798;28;96775;-80
2022/12/01 19:20:29;;;;;;;12.37;7.83;;;;;;;10.60;66.96;100357.94;10296960;28;97384;-80
2022/12/01 19:25:32;;;;;;;13.63;7.05;;;;;;;10.51;67.42;100359.16;10297148;28;96719;-80
2022/12/01 19:30:36;;;;;;;11.40;7.45;;;;;;;10.41;68.07;100351.66;10296563;28;96773;-80
2022/12/01 19:35:40;;;;;;;9.73;6.55;;;;;;;10.35;67.90;100354.53;10297075;28;96894;-80
2022/12/01 19:40:43;;;;;;;11.02;6.85;;;;;;;10.32;68.59;100367.78;10325188;28;96679;-80
2022/12/01 19:45:48;;;;;;;10.20;7.30;;;;;;;10.18;69.66;100377.03;10337601;28;96674;-80
2022/12/01 19:50:51;;;;;;;9.27;7.10;;;;;;;10.10;69.96;100371.22;10299369;28;96650;-80
2022/12/01 19:55:54;;;;;;;9.57;7.22;;;;;;;10.14;69.86;100372.78;10296692;28;96899;-81
2022/12/01 20:01:04;;;;;;;10.10;6.72;;;;;;;10.13;69.93;100378.09;10296004;28;96697;-80
2022/12/01 20:06:09;;;;;;;10.45;6.88;;;;;;;10.08;70.03;100372.16;10317065;28;97161;-80
2022/12/01 20:11:14;;;;;;;9.63;7.00;;;;;;;10.10;70.62;100371.22;10310545;28;96812;-80
2022/12/01 20:16:21;;;;;;;11.63;7.53;;;;;;;10.03;70.90;100380.22;10296146;28;97159;-80
2022/12/01 20:21:26;;;;;;;12.15;7.97;;;;;;;10.03;71.33;100379.34;10295392;28;96751;-80
2022/12/01 20:26:32;;;;;;;12.43;7.50;;;;;;;9.95;71.82;100378.78;10295752;28;96749;-80
2022/12/01 20:31:38;;;;;;;9.90;7.18;;;;;;;9.96;71.83;100377.84;10295784;28;96830;-80
2022/12/01 20:36:42;;;;;;;10.63;7.57;;;;;;;9.95;71.89;100379.63;10302347;28;96719;-80
2022/12/01 20:41:46;;;;;;;11.85;7.40;;;;;;;9.94;71.99;100379.66;10339718;28;96867;-80
2022/12/01 20:46:50;;;;;;;13.23;8.05;;;;;;;9.76;73.71;100382.94;10343277;28;96652;-80
2022/12/01 20:51:53;;;;;;;12.30;8.25;;;;;;;9.71;74.28;100382.25;10343333;28;96645;-80
2022/12/01 20:56:58;;;;;;;9.85;7.57;;;;;;;9.72;73.79;100376.94;10342713;28;96720;-80
2022/12/01 21:02:02;;;;;;;11.65;7.95;;;;;;;9.70;74.12;100378.75;10342340;28;97391;-80
2022/12/01 21:07:06;;;;;;;11.35;7.80;;;;;;;9.78;73.79;100375.88;10342433;28;97138;-80
2022/12/01 21:17:39;;;;;;;10.23;6.70;;;;;;;10.20;72.31;100374.34;10300892;28;96756;-80
2022/12/01 21:22:43;;;;;;;8.15;6.97;;;;;;;10.26;70.83;100367.09;10300956;28;96821;-80
2022/12/01 21:27:47;;;;;;;10.50;6.05;;;;;;;10.28;71.02;100365.25;10300928;28;96581;-80
2022/12/01 21:32:53;;;;;;;8.65;6.00;;;;;;;10.25;71.77;100375.91;10301061;28;96693;-80
2022/12/01 21:38:00;;;;;;;8.98;6.72;;;;;;;10.13;72.07;100372.84;10300172;28;97339;-80
2022/12/01 21:43:20;;;;;;;9.68;6.60;;;;;;;10.01;71.90;100374.16;10332848;28;96947;-80
2022/12/01 21:48:25;;;;;;;10.32;6.43;;;;;;;10.11;71.45;100374.66;10341271;28;96739;-80
2022/12/01 21:53:36;;;;;;;9.35;6.72;;;;;;;10.12;71.38;100365.88;10340818;28;97161;-80
2022/12/01 21:58:39;;;;;;;10.63;6.80;;;;;;;10.14;70.76;100359.63;10340608;28;96860;-81
2022/12/01 22:03:46;;;;;;;9.95;6.72;;;;;;;10.22;70.79;100367.25;10338282;28;96965;-80
2022/12/01 22:08:51;;;;;;;8.57;6.28;;;;;;;10.23;70.96;100358.44;10336295;28;96879;-80
2022/12/01 22:14:01;;;;;;;;;;;;;;;10.08;71.18;100359.88;10341093;28;97091;-80
2022/12/01 22:19:25;;;;;;;11.73;6.43;;;;;;;10.07;71.00;100366.03;10340557;28;96849;-80
2022/12/01 22:24:34;;;;;;;9.85;6.07;;;;;;;10.11;71.11;100377.31;10298193;28;98263;-81
2022/12/01 22:29:41;;;;;;;9.40;6.65;;;;;;;10.11;70.73;100377.31;10298528;28;96836;-80
2022/12/01 22:34:51;;;;;;;9.93;7.05;;;;;;;10.06;70.83;100385.38;10298623;28;97117;-81
2022/12/01 22:39:56;;;;;;;9.50;6.32;;;;;;;10.08;70.61;100393.19;10306436;28;96820;-81
2022/12/01 22:45:01;;;;;;;9.85;6.28;;;;;;;10.08;70.65;100393.19;10339858;28;96832;-80
2022/12/01 22:50:26;;;;;;;8.95;6.50;;;;;;;10.02;70.81;100390.78;10339564;28;97116;-81
2022/12/01 22:55:29;;;;;;;10.97;6.50;;;;;;;9.99;70.58;100393.50;10318240;28;96730;-80
2022/12/01 23:00:33;;;;;;;10.45;6.55;;;;;;;10.01;70.30;100389.94;10297236;28;96732;-80
2022/12/01 23:05:38;;;;;;;7.80;6.07;;;;;;;10.05;69.90;100385.41;10309058;28;96730;-80
2022/12/01 23:10:42;;;;;;;9.55;5.80;;;;;;;10.02;69.56;100393.44;10332556;28;96727;-80
2022/12/01 23:15:46;;;;;;;7.88;5.90;;;;;;;9.97;69.66;100383.06;10338651;28;96673;-80
2022/12/01 23:20:53;;;;;;;9.02;6.32;;;;;;;9.98;70.00;100381.28;10338516;28;96690;-80
2022/12/01 23:25:57;;;;;;;9.65;5.95;;;;;;;9.92;69.92;100386.75;10338377;28;97160;-81
2022/12/01 23:31:00;;;;;;;8.55;6.30;;;;;;;9.83;70.34;100387.91;10337979;28;97173;-80
2022/12/01 23:36:12;;;;;;;10.98;6.80;;;;;;;9.72;70.53;100390.06;10338176;28;97642;-80
2022/12/01 23:41:23;;;;;;;9.10;6.45;;;;;;;9.66;71.04;100385.00;10338120;28;96786;-80